Freeport, IL

8:24 PM CST on January 22, 2017 (GMT -0600)
Rooftop Weather - West Freeport | | Change Station
Active Advisory: Flood Warning

Elev 845 ft 42.30 °N, 89.67 °W | Updated 20 seconds ago

Overcast
Overcast
37.2 °F
Feels Like 37 °F
N
0.0
Wind Variable Wind from North
Gusts 0.0 mph

Today
High -- | Low -- °F
--% Chance of Precip.
Yesterday
High -- | Low -- °F
Precip. -- in
Pressure 29.69 in
Visibility 7.0 miles
Clouds Overcast 800 ft
Windchill 37 °F
Dew Point 36 °F
Humidity 94%
Rainfall 0.00 in
Snow Depth Not available.
7:20 AM 5:00 PM
Waning Crescent, 22% visible
METAR KFEP 230215Z AUTO 35010KT 7SM OVC008 03/02 A2969 RMK AO2 T00280020
Pressure 29.69 in
Visibility 7.0 miles
Clouds Overcast 800 ft
Windchill 37 °F
Dew Point 36 °F
Humidity 94%
Rainfall 0.00 in
Snow Depth Not available.
7:20 AM 5:00 PM
Waning Crescent, 22% visible
METAR KFEP 230215Z AUTO 35010KT 7SM OVC008 03/02 A2969 RMK AO2 T00280020

Get Your Daily Forecast Email!

Thanks for signing up!

Be on the lookout for a verification email in your inbox.

You'll start receiving the daily forecast at 8 AM.

×

10-Day Weather Forecast

Almanac

Astronomy

Jan. 22, 2017 Rise Set
Actual Time
Civil Twilight
Nautical Twilight
Astronomical Twilight
Moon
Length of Visible Light
Length of Day
Tomorrow will be .
, % of the Moon is Illuminated

Today's Extremes

State Highs State Lows

Community

WunderPhotos

Upload Photos

1,962,540 photos uploaded!

WunderBlog® & News

Nearby

Air Quality

  Air Quality AQ Index Pollutant
Not available.

Snow Depth

Station Depth Elevation

Earthquake Activity

City Distance Mag. Time & Date
Minimum magnitude displayed is 2.5.

Coastal Water Temperatures

Place Temperature

Stations

Nearby Weather Stations

Station Location Temp. Windchill Dew Point Humidity Wind Precip. Elev Updated Type
                   

Watches & Warnings

Flood Warning
Issued: 10:41 AM CST Jan. 22, 2017 – National Weather Service

... Flood Warning now in effect until Thursday morning...

The Flood Warning continues for
the Pecatonica River at Freeport.
* Until Thursday morning.
* At 9:30 am Sunday the stage was 13.1 feet... and steady.
* Flood stage is 13.0 feet.
* Minor flooding is occurring.
* Forecast... rise to 13.4 feet Tuesday morning. Fall below flood
stage Thursday morning.
* Impact... at 13.0 feet... water affects low lying sections of
Freeport mainly east of the Pecatonica River.


Lat... Lon 4226 8950 4232 8949 4233 8961 4245 8976
      4230 8971